Terminal Aerodrome Forecast
Issued by NWS

Home | Current Version | Previous Version | Text Only | Print | Product List | Glossary On
Versions: 1 2 3 4 5 6 7 8 9 10 11 12 13 14
000
FTUS46 KMTR 232335
TAFSNS
TAF
KSNS 232335Z 2400/2424 27014KT P6SM SKC
     FM240300 28006KT P6SM SKC
     FM240600 14005KT P6SM SKC
      TEMPO 2412/2415 BKN005
     FM241900 29010KT P6SM SKC=

USA.gov is the U.S. government's official web portal to all federal, state and local government web resources and services.